Time;durP1;ratioP1;P1;durP2;ratioP2;P2;SDS_P1;SDS_P2;PMS_P1;PMS_P2;Temp;Humidity;BMP_temperature;BMP_pressure;BME280_temperature;BME280_humidity;BME280_pressure;Samples;Min_cycle;Max_cycle;Signal;HPM_P1;HPM_P2
2023/06/09 00:00:07;;;;;;;12.80;3.90;;;;;;;20.56;44.84;101017.37;107360;1259;98454;-69
2023/06/09 00:02:37;;;;;;;20.40;4.20;;;;;;;20.50;45.15;101017.41;107388;1257;97913;-69
2023/06/09 00:05:06;;;;;;;14.90;4.00;;;;;;;20.42;45.35;101015.77;107396;1254;111833;-70
2023/06/09 00:07:36;;;;;;;11.00;3.20;;;;;;;20.35;45.51;101019.23;107420;1257;109176;-68
2023/06/09 00:10:05;;;;;;;11.40;4.30;;;;;;;20.28;45.62;101014.67;107401;1254;107675;-70
2023/06/09 00:12:33;;;;;;;5.30;3.00;;;;;;;20.22;45.91;101014.82;107266;1254;97851;-70
2023/06/09 00:15:01;;;;;;;4.90;3.30;;;;;;;20.16;46.11;101012.25;107374;1254;97824;-69
2023/06/09 00:17:30;;;;;;;10.90;3.40;;;;;;;20.11;46.30;101014.78;107345;1255;111521;-69
2023/06/09 00:20:04;;;;;;;11.10;3.70;;;;;;;20.06;46.49;101017.09;107365;1254;109293;-69
2023/06/09 00:22:32;;;;;;;9.20;3.40;;;;;;;19.99;46.44;101015.16;107348;1257;108209;-70
2023/06/09 00:25:01;;;;;;;11.50;3.50;;;;;;;19.91;46.88;101015.77;107219;1260;97814;-71
2023/06/09 00:27:29;;;;;;;7.70;3.00;;;;;;;19.81;47.32;101012.80;107384;1254;97722;-67
2023/06/09 00:29:57;;;;;;;7.20;2.90;;;;;;;19.70;47.72;101017.41;107241;1257;112007;-69
2023/06/09 00:32:27;;;;;;;4.80;2.90;;;;;;;19.62;47.81;101013.27;107261;1254;109166;-69
2023/06/09 00:34:56;;;;;;;13.90;3.70;;;;;;;19.56;47.95;101008.65;107394;1254;107481;-73
2023/06/09 00:37:24;;;;;;;9.20;3.60;;;;;;;19.49;48.04;101004.81;107422;1258;97799;-70
2023/06/09 00:39:52;;;;;;;10.20;3.00;;;;;;;19.41;48.33;101005.22;107445;1254;97726;-70
2023/06/09 00:42:21;;;;;;;7.60;3.40;;;;;;;19.34;48.36;101002.23;107431;1254;111857;-72
2023/06/09 00:44:49;;;;;;;6.50;3.20;;;;;;;19.26;48.83;101002.80;107387;1254;110075;-71
2023/06/09 00:47:18;;;;;;;12.00;3.40;;;;;;;19.17;49.06;101007.88;107440;1254;108138;-68
2023/06/09 00:49:46;;;;;;;8.60;3.90;;;;;;;19.11;49.24;101011.60;107396;1254;97729;-69
2023/06/09 00:52:15;;;;;;;5.10;3.00;;;;;;;19.06;49.10;101003.63;107423;1257;98499;-69
2023/06/09 00:54:44;;;;;;;6.70;3.30;;;;;;;19.02;48.95;101002.20;107408;1257;111821;-69
2023/06/09 00:57:13;;;;;;;6.80;3.10;;;;;;;18.99;49.09;101001.35;107398;1254;109680;-70
2023/06/09 00:59:41;;;;;;;9.00;3.30;;;;;;;18.95;49.24;100998.05;107439;1254;106586;-70
2023/06/09 01:02:12;;;;;;;9.20;3.50;;;;;;;18.91;49.55;101004.23;107372;1259;97848;-69
2023/06/09 01:04:49;;;;;;;12.80;3.60;;;;;;;18.89;49.59;101007.11;107446;1254;97726;-70
2023/06/09 01:07:40;;;;;;;11.40;3.50;;;;;;;18.85;49.88;100998.77;107496;1254;110889;-69
2023/06/09 01:10:17;;;;;;;9.20;3.20;;;;;;;18.83;50.14;101000.32;107476;1253;109474;-72
2023/06/09 01:13:09;;;;;;;18.20;3.10;;;;;;;18.81;50.17;100997.69;107388;1254;107906;-69
2023/06/09 01:15:53;;;;;;;12.30;3.50;;;;;;;18.74;50.51;101000.98;107368;1254;97831;-69
2023/06/09 01:18:24;;;;;;;7.70;3.60;;;;;;;18.70;50.51;100999.69;107213;1254;97857;-68
2023/06/09 01:21:06;;;;;;;9.70;3.20;;;;;;;18.67;50.53;100996.63;107408;1254;110927;-70
2023/06/09 01:23:51;;;;;;;11.90;4.00;;;;;;;18.64;50.66;100999.70;107370;1254;110214;-69
2023/06/09 01:26:21;;;;;;;6.60;3.00;;;;;;;18.60;50.82;100997.98;107337;1254;107071;-71
2023/06/09 01:28:55;;;;;;;16.30;4.00;;;;;;;18.54;51.17;100999.46;107402;1257;97821;-69
2023/06/09 01:31:24;;;;;;;9.90;3.40;;;;;;;18.47;51.20;100996.30;107442;1254;97908;-69
2023/06/09 01:33:54;;;;;;;9.70;3.40;;;;;;;18.44;51.31;101000.35;107418;1254;111979;-69
2023/06/09 01:36:22;;;;;;;5.00;2.70;;;;;;;18.43;51.56;101002.55;107413;1254;109753;-70
2023/06/09 01:38:51;;;;;;;8.50;3.40;;;;;;;18.40;51.61;101001.08;107373;1254;108419;-69
2023/06/09 01:41:21;;;;;;;10.20;3.50;;;;;;;18.38;51.77;100999.98;107409;1254;97806;-69
2023/06/09 01:43:49;;;;;;;9.50;3.30;;;;;;;18.36;51.76;101000.25;107282;1254;97832;-69
2023/06/09 01:46:17;;;;;;;9.10;3.80;;;;;;;18.34;51.94;101000.67;107405;1254;110994;-70
2023/06/09 01:49:09;;;;;;;6.20;3.30;;;;;;;18.34;51.77;101006.23;107384;1254;109670;-67
2023/06/09 01:51:41;;;;;;;9.60;3.30;;;;;;;18.31;52.05;101008.33;107348;1254;108576;-68
2023/06/09 01:54:21;;;;;;;5.00;3.10;;;;;;;18.28;52.29;101008.59;107377;1257;97835;-70
2023/06/09 01:56:58;;;;;;;5.70;3.00;;;;;;;18.27;52.35;101010.57;107441;1254;97671;-73
2023/06/09 01:59:33;;;;;;;8.70;4.00;;;;;;;18.23;52.52;101011.20;107387;1254;111976;-69
2023/06/09 02:02:04;;;;;;;6.70;3.50;;;;;;;18.15;52.88;101005.61;107382;1254;110380;-69
2023/06/09 02:04:35;;;;;;;8.20;3.70;;;;;;;18.09;53.07;101006.25;107366;1257;107831;-71
2023/06/09 02:07:05;;;;;;;8.40;3.80;;;;;;;18.05;53.37;101006.39;107455;1254;97870;-69
2023/06/09 02:09:33;;;;;;;10.10;4.00;;;;;;;18.02;53.46;101005.11;107438;1257;97692;-68
2023/06/09 02:12:01;;;;;;;8.00;3.30;;;;;;;18.02;53.48;101008.98;107416;1254;111929;-69
2023/06/09 02:14:33;;;;;;;10.70;3.40;;;;;;;18.00;53.56;101008.80;107364;1254;108712;-70
2023/06/09 02:17:03;;;;;;;10.90;3.30;;;;;;;17.98;53.59;101005.06;107373;1254;107749;-69
2023/06/09 02:19:35;;;;;;;9.20;3.30;;;;;;;17.94;53.64;101006.38;107412;1257;98308;-69
2023/06/09 02:22:08;;;;;;;10.20;3.60;;;;;;;17.92;53.81;101008.27;107429;1254;97902;-69
2023/06/09 02:24:36;;;;;;;10.70;3.70;;;;;;;17.89;53.88;101014.45;107415;1254;111601;-70
2023/06/09 02:27:05;;;;;;;11.20;3.30;;;;;;;17.86;53.99;101016.54;107362;1254;109478;-69
2023/06/09 02:29:35;;;;;;;11.00;4.80;;;;;;;17.83;54.14;101018.66;107312;1254;107729;-70
2023/06/09 02:32:05;;;;;;;10.70;3.70;;;;;;;17.81;54.66;101018.77;107385;1254;97970;-68
2023/06/09 02:34:34;;;;;;;10.80;3.60;;;;;;;17.76;54.62;101019.73;107325;1255;97825;-72
2023/06/09 02:37:07;;;;;;;14.80;3.90;;;;;;;17.72;54.80;101017.50;107390;1254;111309;-70
2023/06/09 02:39:35;;;;;;;11.20;3.90;;;;;;;17.68;54.81;101019.35;107435;1254;109117;-71
2023/06/09 02:42:05;;;;;;;9.20;3.60;;;;;;;17.66;55.00;101015.20;107399;1254;108195;-70
2023/06/09 02:44:36;;;;;;;9.20;3.60;;;;;;;17.66;55.09;101017.63;107238;1254;97802;-69
2023/06/09 02:47:06;;;;;;;9.60;3.80;;;;;;;17.65;55.07;101017.29;107366;1254;97732;-70
2023/06/09 02:49:34;;;;;;;14.80;3.90;;;;;;;17.64;55.03;101018.92;107363;1259;111426;-70
2023/06/09 02:52:03;;;;;;;14.40;3.50;;;;;;;17.64;55.18;101019.33;107300;1254;109145;-65
2023/06/09 02:54:35;;;;;;;9.90;4.30;;;;;;;17.64;55.27;101022.15;107276;1259;108984;-70
2023/06/09 02:57:06;;;;;;;5.80;3.60;;;;;;;17.63;55.54;101018.99;107376;1254;98307;-69
2023/06/09 02:59:36;;;;;;;16.70;4.10;;;;;;;17.62;55.48;101018.63;107294;1254;98398;-69
2023/06/09 03:02:06;;;;;;;15.00;3.80;;;;;;;17.61;55.72;101021.96;107390;1254;111448;-69
2023/06/09 03:04:35;;;;;;;11.20;4.00;;;;;;;17.61;55.88;101023.09;107385;1254;108591;-69
2023/06/09 03:07:09;;;;;;;15.40;3.70;;;;;;;17.63;55.87;101025.80;107362;1254;108296;-69
2023/06/09 03:09:38;;;;;;;10.40;4.30;;;;;;;17.63;55.85;101028.08;107371;1254;97702;-68
2023/06/09 03:12:08;;;;;;;16.80;5.30;;;;;;;17.63;55.81;101029.13;107327;1254;97925;-70
2023/06/09 03:14:36;;;;;;;19.00;6.80;;;;;;;17.65;55.87;101029.87;107209;1254;112554;-69
2023/06/09 03:17:05;;;;;;;8.60;5.60;;;;;;;17.68;55.85;101035.10;107401;1254;109604;-69
2023/06/09 03:19:35;;;;;;;14.10;4.60;;;;;;;17.73;55.88;101036.36;107430;1254;108188;-72
2023/06/09 03:22:04;;;;;;;15.60;4.10;;;;;;;17.79;55.91;101041.00;107416;1254;97810;-69
2023/06/09 03:24:35;;;;;;;14.30;3.80;;;;;;;17.82;55.92;101043.63;107316;1257;98381;-69
2023/06/09 03:27:03;;;;;;;11.30;4.20;;;;;;;17.82;56.08;101045.33;107306;1257;112367;-71
2023/06/09 03:29:32;;;;;;;11.90;4.50;;;;;;;17.83;56.21;101044.69;107261;1254;110639;-70
2023/06/09 03:32:01;;;;;;;12.10;4.30;;;;;;;17.87;56.19;101043.00;107350;1254;107455;-68
2023/06/09 03:34:30;;;;;;;10.80;4.40;;;;;;;17.93;56.14;101045.55;107354;1254;97817;-71
2023/06/09 03:36:59;;;;;;;14.50;5.00;;;;;;;17.98;56.12;101041.48;107213;1254;98395;-70
2023/06/09 03:39:28;;;;;;;20.30;7.10;;;;;;;18.05;56.17;101044.78;107341;1254;111384;-69
2023/06/09 03:41:57;;;;;;;18.10;4.70;;;;;;;18.10;56.05;101045.35;107383;1254;110213;-70
2023/06/09 03:44:26;;;;;;;20.90;5.80;;;;;;;18.18;55.95;101045.75;107380;1259;108270;-72
2023/06/09 03:46:55;;;;;;;15.30;4.80;;;;;;;18.27;55.87;101047.98;107368;1254;97985;-69
2023/06/09 03:49:24;;;;;;;14.50;4.90;;;;;;;18.36;55.91;101052.36;107406;1259;98353;-70
2023/06/09 03:51:52;;;;;;;12.20;4.60;;;;;;;18.45;55.84;101052.38;107439;1254;111309;-70
2023/06/09 03:54:21;;;;;;;18.30;4.10;;;;;;;18.57;55.40;101049.94;107431;1254;109626;-70
2023/06/09 03:56:49;;;;;;;25.60;4.80;;;;;;;18.70;55.27;101054.70;107414;1254;108369;-71
2023/06/09 03:59:18;;;;;;;33.00;4.80;;;;;;;18.82;55.09;101053.94;107306;1254;98000;-68
2023/06/09 04:01:48;;;;;;;24.70;4.70;;;;;;;18.95;54.77;101056.77;107467;1254;97697;-70
2023/06/09 04:04:17;;;;;;;20.70;5.10;;;;;;;19.06;54.46;101059.63;107448;1254;112128;-71
2023/06/09 04:06:47;;;;;;;15.40;5.40;;;;;;;19.15;54.02;101058.89;107453;1254;109825;-68
2023/06/09 04:09:19;;;;;;;20.90;4.90;;;;;;;19.24;53.64;101061.29;107184;1254;106727;-69
2023/06/09 04:11:48;;;;;;;14.70;4.40;;;;;;;19.31;53.55;101063.67;107408;1254;97895;-70
2023/06/09 04:14:16;;;;;;;14.20;3.60;;;;;;;19.37;53.09;101064.21;107425;1254;97851;-69
2023/06/09 04:16:45;;;;;;;15.10;3.90;;;;;;;19.41;52.87;101064.10;107474;1254;112399;-69
2023/06/09 04:19:14;;;;;;;17.60;4.40;;;;;;;19.43;52.96;101066.44;107299;1254;110144;-72
2023/06/09 04:21:43;;;;;;;15.10;4.30;;;;;;;19.44;52.90;101066.84;107270;1254;108846;-70
2023/06/09 04:24:13;;;;;;;12.80;4.00;;;;;;;19.44;52.69;101068.30;107432;1257;97889;-70
2023/06/09 04:26:44;;;;;;;13.40;3.80;;;;;;;19.43;52.52;101069.88;107410;1254;98373;-68
2023/06/09 04:29:13;;;;;;;15.40;4.10;;;;;;;19.43;52.54;101074.00;107411;1259;111271;-69
2023/06/09 04:31:45;;;;;;;10.80;3.80;;;;;;;19.45;52.56;101077.46;107412;1254;109326;-69
2023/06/09 04:34:15;;;;;;;276.80;20.00;;;;;;;19.46;52.53;101076.56;107396;1254;107730;-69
2023/06/09 04:36:47;;;;;;;88.00;8.40;;;;;;;19.49;52.49;101077.91;107383;1254;97813;-69
2023/06/09 04:39:16;;;;;;;11.70;4.20;;;;;;;19.50;52.44;101079.34;107396;1254;97715;-70
2023/06/09 04:41:48;;;;;;;123.00;12.50;;;;;;;19.49;52.25;101076.27;107378;1254;112420;-71
2023/06/09 04:44:17;;;;;;;22.60;5.00;;;;;;;19.51;52.30;101076.67;107354;1254;110044;-70
2023/06/09 04:46:49;;;;;;;30.80;4.70;;;;;;;19.54;52.27;101078.85;107402;1254;108234;-70
2023/06/09 04:49:17;;;;;;;20.20;5.90;;;;;;;19.57;52.25;101074.50;107447;1254;97707;-69
2023/06/09 04:51:48;;;;;;;22.30;8.80;;;;;;;19.60;52.17;101076.64;107318;1254;98366;-68
2023/06/09 04:54:25;;;;;;;29.40;11.70;;;;;;;19.66;52.41;101075.92;107284;1254;112676;-71
2023/06/09 04:56:57;;;;;;;22.50;5.70;;;;;;;19.74;52.27;101067.16;107419;1258;109177;-71
2023/06/09 04:59:29;;;;;;;16.50;5.00;;;;;;;19.80;52.33;101067.02;107401;1254;108556;-67
2023/06/09 05:01:57;;;;;;;12.20;4.90;;;;;;;19.85;52.17;101065.77;107382;1254;97861;-69
2023/06/09 05:04:26;;;;;;;19.70;4.40;;;;;;;19.91;52.09;101064.26;107302;1254;97940;-69
2023/06/09 05:06:55;;;;;;;22.30;5.50;;;;;;;19.95;51.98;101059.02;107389;1253;110925;-69
2023/06/09 05:09:24;;;;;;;20.00;5.80;;;;;;;19.99;52.09;101057.00;107387;1254;109436;-69
2023/06/09 05:11:52;;;;;;;22.20;5.80;;;;;;;20.04;51.60;101055.35;107387;1254;108376;-68
2023/06/09 05:14:21;;;;;;;27.90;5.50;;;;;;;20.09;51.78;101053.77;107420;1254;97842;-68
2023/06/09 05:16:53;;;;;;;17.00;4.90;;;;;;;20.15;51.74;101053.55;107415;1254;97738;-67
2023/06/09 05:19:22;;;;;;;24.50;4.50;;;;;;;20.21;51.58;101051.92;107452;1253;112207;-67
2023/06/09 05:21:50;;;;;;;15.90;5.10;;;;;;;20.25;51.26;101045.74;107438;1254;108904;-71
2023/06/09 05:24:19;;;;;;;22.80;5.20;;;;;;;20.29;51.03;101047.33;107391;1253;107673;-69
2023/06/09 05:26:48;;;;;;;28.70;8.80;;;;;;;20.32;50.70;101049.30;107286;1254;97822;-68
2023/06/09 05:29:19;;;;;;;36.00;10.20;;;;;;;20.33;50.43;101047.52;107346;1254;97854;-72
2023/06/09 05:31:48;;;;;;;21.20;5.90;;;;;;;20.37;50.60;101047.09;107403;1254;112187;-68
2023/06/09 05:34:17;;;;;;;19.50;4.80;;;;;;;20.39;50.35;101042.48;107369;1254;109656;-70
2023/06/09 05:36:45;;;;;;;8.90;3.90;;;;;;;20.41;50.33;101043.09;107384;1254;108152;-69
2023/06/09 05:39:15;;;;;;;12.50;3.90;;;;;;;20.44;50.20;101048.29;107400;1254;97957;-69
2023/06/09 05:41:43;;;;;;;18.70;4.00;;;;;;;20.47;50.13;101054.85;107416;1254;97805;-70
2023/06/09 05:44:12;;;;;;;13.60;4.40;;;;;;;20.51;50.44;101058.16;107407;1254;111831;-67
2023/06/09 05:46:42;;;;;;;33.40;4.80;;;;;;;20.57;50.67;101055.44;107300;1254;109099;-69
2023/06/09 05:49:10;;;;;;;19.10;4.30;;;;;;;20.64;50.82;101053.14;107427;1257;108695;-69
2023/06/09 05:51:38;;;;;;;16.10;4.00;;;;;;;20.69;50.79;101049.51;107361;1254;97931;-70
2023/06/09 05:54:07;;;;;;;33.80;5.10;;;;;;;20.74;50.75;101045.35;107417;1254;98369;-68
2023/06/09 05:56:44;;;;;;;23.00;5.20;;;;;;;20.77;50.73;101048.88;107426;1254;111794;-73
2023/06/09 05:59:20;;;;;;;26.00;5.00;;;;;;;20.81;50.60;101050.35;107339;1254;110073;-70
2023/06/09 06:01:57;;;;;;;27.70;5.50;;;;;;;20.87;50.55;101052.78;107114;1254;108136;-69
2023/06/09 06:04:26;;;;;;;23.30;5.30;;;;;;;20.91;50.58;101051.10;107277;1254;97873;-68
2023/06/09 06:06:55;;;;;;;34.90;6.50;;;;;;;20.95;50.52;101051.31;107193;1254;97847;-67
2023/06/09 06:09:24;;;;;;;20.70;5.10;;;;;;;21.01;50.52;101053.14;107455;1254;110816;-68
2023/06/09 06:11:52;;;;;;;18.90;4.00;;;;;;;21.05;49.59;101052.76;107398;1254;109474;-68
2023/06/09 06:14:21;;;;;;;13.30;3.80;;;;;;;21.11;49.53;101056.63;107393;1254;107817;-69
2023/06/09 06:16:49;;;;;;;28.40;4.60;;;;;;;21.17;48.93;101058.06;107377;1254;97818;-68
2023/06/09 06:19:18;;;;;;;19.50;3.90;;;;;;;21.22;48.64;101055.36;107384;1254;98611;-70
2023/06/09 06:21:46;;;;;;;13.20;3.80;;;;;;;21.27;48.40;101052.87;107405;1254;112276;-71
2023/06/09 06:24:14;;;;;;;10.80;3.70;;;;;;;21.35;48.07;101051.36;107374;1254;109634;-68
2023/06/09 06:26:44;;;;;;;11.50;3.70;;;;;;;21.39;47.54;101046.55;107395;1254;110943;-72
2023/06/09 06:29:17;;;;;;;15.50;4.00;;;;;;;21.44;47.48;101047.54;107381;1254;97832;-74
2023/06/09 06:31:48;;;;;;;9.30;3.80;;;;;;;21.50;47.41;101047.54;107402;1257;97783;-69
2023/06/09 06:34:17;;;;;;;12.80;3.60;;;;;;;21.56;47.43;101051.46;107385;1254;111746;-71
2023/06/09 06:36:45;;;;;;;11.10;4.50;;;;;;;21.65;47.17;101052.86;107396;1254;110074;-68
2023/06/09 06:39:14;;;;;;;8.80;4.10;;;;;;;21.73;47.05;101052.81;107310;1254;106788;-68
2023/06/09 06:41:42;;;;;;;14.30;3.70;;;;;;;21.80;46.81;101049.73;107287;1254;97831;-68
2023/06/09 06:44:10;;;;;;;13.20;4.10;;;;;;;21.85;46.69;101042.89;107400;1254;97697;-68
2023/06/09 06:46:39;;;;;;;13.20;4.50;;;;;;;21.94;46.60;101042.92;107442;1254;111570;-67
2023/06/09 06:49:07;;;;;;;13.10;4.00;;;;;;;22.02;46.07;101043.24;107366;1254;109001;-68
2023/06/09 06:51:36;;;;;;;18.20;4.00;;;;;;;22.09;45.86;101044.07;107367;1258;108300;-67
2023/06/09 06:54:04;;;;;;;18.70;4.70;;;;;;;22.15;45.60;101043.51;107428;1257;97959;-70
2023/06/09 06:56:33;;;;;;;21.00;4.80;;;;;;;22.24;45.56;101039.60;107421;1254;97740;-70
2023/06/09 06:59:01;;;;;;;15.70;4.10;;;;;;;22.36;45.41;101032.92;107443;1254;111766;-70
2023/06/09 07:01:31;;;;;;;22.80;4.20;;;;;;;22.45;45.40;101030.27;107393;1254;110644;-67
2023/06/09 07:04:00;;;;;;;11.90;4.10;;;;;;;22.54;45.39;101026.81;107403;1254;108643;-69
2023/06/09 07:06:31;;;;;;;15.50;4.30;;;;;;;22.63;45.53;101029.65;107348;1254;97868;-68
2023/06/09 07:09:00;;;;;;;12.60;4.30;;;;;;;22.73;44.87;101026.65;107385;1254;98519;-68
2023/06/09 07:11:33;;;;;;;22.10;4.10;;;;;;;22.81;44.12;101027.02;107407;1254;111638;-70
2023/06/09 07:14:01;;;;;;;14.40;4.10;;;;;;;22.88;43.87;101027.66;107386;1254;109234;-69
2023/06/09 07:16:31;;;;;;;14.70;4.60;;;;;;;22.96;43.48;101028.59;107405;1253;108175;-69
2023/06/09 07:18:59;;;;;;;14.50;4.60;;;;;;;23.05;43.36;101027.80;107409;1254;98427;-68
2023/06/09 07:21:31;;;;;;;12.90;4.20;;;;;;;23.13;43.25;101030.51;107403;1254;97821;-67
2023/06/09 07:24:00;;;;;;;11.40;4.30;;;;;;;23.22;43.28;101026.92;107296;1254;112372;-70
2023/06/09 07:26:29;;;;;;;16.40;4.60;;;;;;;23.31;42.78;101026.36;107315;1254;108755;-71
2023/06/09 07:28:59;;;;;;;14.50;4.60;;;;;;;23.40;42.95;101023.80;107292;1254;107144;-73
2023/06/09 07:31:29;;;;;;;11.30;4.90;;;;;;;23.53;41.74;101016.64;107396;1254;97812;-69
2023/06/09 07:33:57;;;;;;;13.60;4.80;;;;;;;23.62;41.43;101021.48;107314;1254;97768;-67
2023/06/09 07:36:29;;;;;;;9.90;4.70;;;;;;;23.71;41.36;101020.52;107408;1254;111740;-68
2023/06/09 07:38:57;;;;;;;9.90;4.30;;;;;;;23.82;40.88;101014.73;107401;1253;109167;-69
2023/06/09 07:41:30;;;;;;;17.80;4.20;;;;;;;23.93;40.29;101014.15;107166;1254;108092;-67
2023/06/09 07:43:59;;;;;;;10.80;4.30;;;;;;;24.06;39.40;101013.70;107413;1254;97841;-69
2023/06/09 07:46:30;;;;;;;14.20;4.90;;;;;;;24.15;39.19;101013.40;107429;1254;97917;-69
2023/06/09 07:48:59;;;;;;;13.60;5.70;;;;;;;24.23;39.33;101014.63;107393;1254;112340;-69
2023/06/09 07:51:36;;;;;;;12.40;4.20;;;;;;;24.34;39.13;101016.33;107319;1254;110648;-70
2023/06/09 07:54:07;;;;;;;18.00;4.90;;;;;;;24.45;38.28;101015.27;107386;1257;106538;-70
2023/06/09 07:56:36;;;;;;;7.40;4.60;;;;;;;24.55;38.43;101015.10;107392;1254;97866;-68
2023/06/09 07:59:06;;;;;;;15.00;4.60;;;;;;;24.66;38.34;101012.36;107291;1254;97820;-68
2023/06/09 08:01:37;;;;;;;10.70;4.50;;;;;;;24.77;38.17;101013.65;106504;1253;1240200;-69
2023/06/09 08:04:06;;;;;;;12.80;4.60;;;;;;;24.85;37.02;101012.48;107412;1254;109463;-70
2023/06/09 08:06:36;;;;;;;11.00;4.40;;;;;;;24.91;37.18;101009.97;107393;1254;108452;-68
2023/06/09 08:09:05;;;;;;;8.70;4.50;;;;;;;25.00;36.54;101007.77;107398;1254;97842;-68
2023/06/09 08:11:33;;;;;;;30.10;5.30;;;;;;;25.08;36.86;101006.12;107467;1253;98366;-66
2023/06/09 08:14:04;;;;;;;6.90;4.60;;;;;;;25.20;35.82;101008.83;107412;1254;113393;-68
2023/06/09 08:16:32;;;;;;;8.10;5.30;;;;;;;25.27;36.00;101003.67;107407;1257;110123;-68
2023/06/09 08:19:01;;;;;;;11.50;4.70;;;;;;;25.39;35.70;101004.70;107433;1254;107643;-70
2023/06/09 08:21:29;;;;;;;13.80;4.80;;;;;;;25.47;34.72;101002.46;107399;1254;97841;-68
2023/06/09 08:23:57;;;;;;;12.00;4.80;;;;;;;25.56;34.08;101007.86;107377;1257;97944;-69
2023/06/09 08:26:26;;;;;;;12.10;4.90;;;;;;;25.61;34.28;101002.50;107476;1254;111946;-67
2023/06/09 08:28:55;;;;;;;16.50;5.50;;;;;;;25.70;34.57;100998.49;107455;1254;109062;-68
2023/06/09 08:31:24;;;;;;;16.30;5.00;;;;;;;25.80;34.30;100995.73;107428;1253;108696;-68
2023/06/09 08:33:53;;;;;;;12.60;5.30;;;;;;;25.90;33.89;100995.77;107402;1254;97842;-68
2023/06/09 08:36:23;;;;;;;11.30;4.70;;;;;;;26.00;34.04;100998.72;107426;1253;97726;-67
2023/06/09 08:38:51;;;;;;;7.90;4.40;;;;;;;26.12;33.64;100996.70;107465;1254;111360;-69
2023/06/09 08:41:24;;;;;;;14.50;5.80;;;;;;;26.26;33.93;100994.25;107449;1254;109684;-68
2023/06/09 08:43:53;;;;;;;10.10;5.10;;;;;;;26.43;33.79;100990.60;107457;1257;108367;-68
2023/06/09 08:46:25;;;;;;;17.60;5.10;;;;;;;26.58;32.89;100992.86;107321;1254;97844;-67
2023/06/09 08:48:57;;;;;;;11.20;4.60;;;;;;;26.72;32.76;100990.81;107501;1253;97934;-66
2023/06/09 08:51:27;;;;;;;12.20;4.40;;;;;;;26.90;33.05;100993.31;107493;1254;110792;-68
2023/06/09 08:53:56;;;;;;;8.70;5.00;;;;;;;27.07;31.98;100991.38;107472;1253;109677;-68
2023/06/09 08:56:24;;;;;;;11.30;4.30;;;;;;;27.22;31.89;100986.63;107471;1254;107536;-68
2023/06/09 08:58:54;;;;;;;10.20;4.60;;;;;;;27.44;31.41;100985.07;107434;1257;98248;-67
2023/06/09 09:01:23;;;;;;;9.80;4.80;;;;;;;27.60;31.59;100982.92;107479;1253;97724;-68
2023/06/09 09:03:51;;;;;;;12.90;4.80;;;;;;;27.77;31.49;100981.50;107441;1256;111716;-71
2023/06/09 09:06:20;;;;;;;12.30;4.40;;;;;;;27.94;30.13;100981.98;107412;1254;111299;-70
2023/06/09 09:08:49;;;;;;;10.00;4.00;;;;;;;28.05;30.33;100977.48;107407;1254;107701;-67
2023/06/09 09:11:17;;;;;;;13.90;4.30;;;;;;;28.21;30.17;100978.56;107421;1254;97848;-70
2023/06/09 09:13:49;;;;;;;8.50;4.40;;;;;;;28.41;29.54;100981.06;107466;1254;98448;-67
2023/06/09 09:16:18;;;;;;;11.00;4.40;;;;;;;28.61;29.17;100977.62;107476;1254;110697;-66
2023/06/09 09:18:47;;;;;;;11.80;4.50;;;;;;;28.88;29.13;100976.20;107393;1254;109562;-69
2023/06/09 09:21:25;;;;;;;10.30;4.20;;;;;;;29.14;28.14;100974.84;107368;1254;108518;-70
2023/06/09 09:24:01;;;;;;;11.20;4.20;;;;;;;29.30;28.11;100973.00;107355;1254;97828;-70
2023/06/09 09:26:30;;;;;;;9.80;3.70;;;;;;;29.56;28.63;100969.06;107413;1254;97899;-70
2023/06/09 09:29:06;;;;;;;7.90;3.60;;;;;;;29.86;27.52;100975.50;107430;1254;111270;-70
2023/06/09 09:31:39;;;;;;;11.40;4.30;;;;;;;30.00;27.56;100964.92;107432;1254;110368;-70
2023/06/09 09:34:12;;;;;;;6.70;3.50;;;;;;;30.19;26.80;100959.00;107397;1254;108121;-68
2023/06/09 09:36:45;;;;;;;9.60;3.90;;;;;;;30.37;26.99;100957.92;107438;1254;97810;-68
2023/06/09 09:39:15;;;;;;;11.70;3.40;;;;;;;30.61;26.33;100951.36;107321;1254;97962;-68
2023/06/09 09:42:10;;;;;;;11.20;4.10;;;;;;;30.78;25.96;100949.64;107436;1253;111143;-68
2023/06/09 09:44:43;;;;;;;9.20;3.80;;;;;;;30.94;26.21;100947.23;107429;1254;109488;-68
2023/06/09 09:47:15;;;;;;;34.70;4.20;;;;;;;31.20;25.75;100941.06;107418;1254;108376;-68
2023/06/09 09:49:58;;;;;;;10.60;3.70;;;;;;;31.28;25.58;100946.32;107441;1254;97810;-67
2023/06/09 09:52:28;;;;;;;19.20;4.30;;;;;;;31.40;25.75;100942.25;107420;1254;97737;-72
2023/06/09 09:55:08;;;;;;;10.20;3.40;;;;;;;31.59;25.65;100931.87;107398;1254;112074;-67
2023/06/09 09:57:41;;;;;;;28.60;4.80;;;;;;;31.99;26.33;100932.52;107434;1254;109059;-67
2023/06/09 10:00:12;;;;;;;6.60;3.70;;;;;;;32.35;25.05;100932.32;107399;1254;108321;-68
2023/06/09 10:02:43;;;;;;;9.10;3.40;;;;;;;32.58;24.63;100932.14;107464;1254;97809;-66
2023/06/09 10:05:16;;;;;;;9.40;4.10;;;;;;;32.86;24.12;100929.08;107477;1254;98366;-71
2023/06/09 10:07:51;;;;;;;10.90;3.60;;;;;;;33.12;23.84;100927.62;107414;1254;112390;-68
2023/06/09 10:10:21;;;;;;;14.00;3.70;;;;;;;33.41;24.07;100925.95;107447;1254;109778;-67
2023/06/09 10:12:52;;;;;;;12.40;3.90;;;;;;;33.74;23.78;100927.80;107445;1254;107198;-66
2023/06/09 10:15:21;;;;;;;9.90;3.40;;;;;;;34.07;23.51;100924.19;107421;1254;97797;-69
2023/06/09 10:17:53;;;;;;;9.60;3.40;;;;;;;34.40;23.44;100927.51;107350;1254;97695;-67
2023/06/09 10:20:25;;;;;;;17.20;3.80;;;;;;;34.74;22.16;100920.91;107436;1254;111419;-71
2023/06/09 10:22:56;;;;;;;12.00;3.40;;;;;;;34.94;22.16;100918.92;107314;1254;109482;-68
2023/06/09 10:25:26;;;;;;;10.10;3.80;;;;;;;34.97;22.00;100916.10;107385;1254;108142;-67
2023/06/09 10:27:55;;;;;;;9.60;3.50;;;;;;;35.06;22.24;100913.94;107450;1254;97703;-67
2023/06/09 10:30:24;;;;;;;9.70;3.60;;;;;;;35.32;21.87;100915.55;107407;1254;97945;-66
2023/06/09 10:33:05;;;;;;;10.80;3.10;;;;;;;35.49;21.91;100910.69;107435;1254;110967;-67
2023/06/09 10:35:37;;;;;;;8.30;2.90;;;;;;;35.65;21.61;100903.79;107428;1254;109684;-67
2023/06/09 10:38:27;;;;;;;10.80;3.40;;;;;;;35.83;20.35;100905.41;107426;1254;106816;-66
2023/06/09 10:41:19;;;;;;;5.40;3.20;;;;;;;35.74;20.55;100904.55;107414;1254;97806;-66
2023/06/09 10:44:09;;;;;;;9.10;3.30;;;;;;;35.68;20.12;100897.60;107310;1254;97803;-67
2023/06/09 10:46:43;;;;;;;8.50;3.80;;;;;;;35.52;20.93;100894.65;107458;1257;112841;-67
2023/06/09 10:49:47;;;;;;;4.00;2.90;;;;;;;35.73;20.62;100889.86;107494;1254;109110;-67
2023/06/09 10:52:35;;;;;;;8.20;4.20;;;;;;;36.03;20.47;100887.48;107406;1254;108274;-67
2023/06/09 10:55:16;;;;;;;15.50;3.10;;;;;;;36.41;20.43;100881.05;107385;1257;97827;-70
2023/06/09 10:57:44;;;;;;;13.10;3.00;;;;;;;36.72;20.18;100874.80;107451;1254;97699;-68
2023/06/09 11:00:16;;;;;;;9.10;3.20;;;;;;;37.20;20.34;100872.94;107418;1254;111827;-68
2023/06/09 11:02:52;;;;;;;6.70;2.90;;;;;;;37.76;19.43;100869.35;107478;1254;110031;-68
2023/06/09 11:05:21;;;;;;;10.60;3.00;;;;;;;38.19;18.68;100862.55;107456;1257;108351;-67
2023/06/09 11:08:03;;;;;;;11.50;2.70;;;;;;;38.66;18.33;100860.95;107434;1254;97825;-68
2023/06/09 11:10:32;;;;;;;;;;;;;;;39.09;18.39;100857.58;107407;1254;97811;-68
2023/06/09 11:13:03;;;;;;;5.40;3.20;;;;;;;39.32;18.02;100860.92;107415;1254;111821;-67
2023/06/09 11:15:54;;;;;;;11.40;3.50;;;;;;;39.68;18.21;100851.23;107452;1254;110053;-68
2023/06/09 11:18:25;;;;;;;7.80;3.20;;;;;;;40.19;16.92;100847.09;107443;1254;107464;-68
2023/06/09 11:21:11;;;;;;;12.00;2.80;;;;;;;40.32;16.39;100844.65;107492;1254;97825;-68
2023/06/09 11:23:55;;;;;;;17.90;3.70;;;;;;;40.54;16.51;100845.51;107443;1254;97837;-67